Time;durP1;ratioP1;P1;durP2;ratioP2;P2;SDS_P1;SDS_P2;PMS_P1;PMS_P2;Temp;Humidity;BMP_temperature;BMP_pressure;BME280_temperature;BME280_humidity;BME280_pressure;Samples;Min_cycle;Max_cycle;Signal;HPM_P1;HPM_P2
2023/03/30 00:01:18;;;;;;;24.58;6.43;;;;;;;;;;4928325;23;20498;-75
2023/03/30 00:03:45;;;;;;;24.08;6.45;;;;;;;;;;4921459;29;20043;-75
2023/03/30 00:06:13;;;;;;;17.83;5.68;;;;;;;;;;4904341;29;20039;-76
2023/03/30 00:08:39;;;;;;;15.45;5.95;;;;;;;;;;4908299;29;20043;-80
2023/03/30 00:11:05;;;;;;;14.45;5.75;;;;;;;;;;4923590;29;20028;-77
2023/03/30 00:13:32;;;;;;;21.50;5.85;;;;;;;;;;4908560;29;20595;-76
2023/03/30 00:15:58;;;;;;;21.63;5.80;;;;;;;;;;4927168;29;20036;-76
2023/03/30 00:18:25;;;;;;;26.65;5.35;;;;;;;;;;4914966;29;20031;-77
2023/03/30 00:20:51;;;;;;;24.33;7.22;;;;;;;;;;4918139;29;20028;-77
2023/03/30 00:23:18;;;;;;;17.20;5.63;;;;;;;;;;4914876;29;20034;-79
2023/03/30 00:25:44;;;;;;;17.75;5.50;;;;;;;;;;4909453;29;20063;-79
2023/03/30 00:28:10;;;;;;;14.27;4.45;;;;;;;;;;4911075;29;20075;-80
2023/03/30 00:30:37;;;;;;;15.05;5.47;;;;;;;;;;4922616;29;20056;-81
2023/03/30 00:33:03;;;;;;;11.93;5.50;;;;;;;;;;4915735;29;20066;-81
2023/03/30 00:35:29;;;;;;;22.77;5.82;;;;;;;;;;4916867;29;20032;-79
2023/03/30 00:37:56;;;;;;;18.25;4.55;;;;;;;;;;4932383;29;20056;-81
2023/03/30 00:40:23;;;;;;;17.42;4.82;;;;;;;;;;4918385;29;20039;-82
2023/03/30 00:42:49;;;;;;;13.68;4.55;;;;;;;;;;4920723;29;20059;-82
2023/03/30 00:45:29;;;;;;;30.88;6.35;;;;;;;;;;4915125;29;20020;-77
2023/03/30 00:48:01;;;;;;;22.15;6.53;;;;;;;;;;4912604;29;20035;-79
2023/03/30 00:50:33;;;;;;;13.32;4.28;;;;;;;;;;4923939;29;20028;-78
2023/03/30 00:53:00;;;;;;;17.63;4.63;;;;;;;;;;4927053;29;20508;-78
2023/03/30 00:55:28;;;;;;;16.40;5.68;;;;;;;;;;4908085;29;20037;-81
2023/03/30 00:57:55;;;;;;;16.08;4.78;;;;;;;;;;4929116;29;20052;-83
2023/03/30 01:00:22;;;;;;;15.93;4.45;;;;;;;;;;4919919;29;20044;-84
2023/03/30 01:02:54;;;;;;;22.48;5.20;;;;;;;;;;4941709;29;20072;-82
2023/03/30 01:05:22;;;;;;;15.73;5.22;;;;;;;;;;4920077;29;20025;-85
2023/03/30 01:07:52;;;;;;;15.75;4.65;;;;;;;;;;4928451;29;20021;-81
2023/03/30 01:10:19;;;;;;;15.95;5.53;;;;;;;;;;4908304;29;20044;-83
2023/03/30 01:12:45;;;;;;;18.50;4.55;;;;;;;;;;4922519;29;20031;-82
2023/03/30 01:15:11;;;;;;;11.95;3.90;;;;;;;;;;4923029;29;20043;-83
2023/03/30 01:17:58;;;;;;;19.17;5.07;;;;;;;;;;4921769;29;20051;-84
2023/03/30 01:20:34;;;;;;;12.80;4.15;;;;;;;;;;4939586;29;20035;-83
2023/03/30 01:23:26;;;;;;;15.90;4.38;;;;;;;;;;4925561;29;20061;-87
2023/03/30 01:26:22;;;;;;;10.63;4.28;;;;;;;;;;4927862;29;20036;-85
2023/03/30 01:28:48;;;;;;;13.13;4.65;;;;;;;;;;4914144;29;20005;-85
2023/03/30 01:31:24;;;;;;;11.80;3.55;;;;;;;;;;4923712;29;20013;-84
2023/03/30 01:33:53;;;;;;;13.07;4.05;;;;;;;;;;4927269;29;20088;-86
2023/03/30 01:36:44;;;;;;;10.15;5.53;;;;;;;;;;4923230;29;20016;-87
2023/03/30 01:39:29;;;;;;;15.40;4.80;;;;;;;;;;4940500;29;20069;-85
2023/03/30 01:42:17;;;;;;;11.95;3.88;;;;;;;;;;4945540;29;20035;-84
2023/03/30 01:44:58;;;;;;;11.57;3.97;;;;;;;;;;4923974;29;20017;-83
2023/03/30 02:12:23;;;;;;;10.57;3.08;;;;;;;;;;951735;27;20357;-82
2023/03/30 02:14:50;;;;;;;7.65;3.08;;;;;;;;;;4937843;29;20094;-81
2023/03/30 02:17:18;;;;;;;11.50;3.00;;;;;;;;;;4937400;29;20024;-82
2023/03/30 02:19:45;;;;;;;11.50;4.13;;;;;;;;;;4952491;29;20051;-82
2023/03/30 02:22:14;;;;;;;10.57;2.95;;;;;;;;;;4951236;29;20028;-82
2023/03/30 02:24:44;;;;;;;8.85;2.78;;;;;;;;;;4938202;29;20064;-81
2023/03/30 02:27:10;;;;;;;5.75;2.42;;;;;;;;;;4939208;29;20028;-81
2023/03/30 02:29:42;;;;;;;13.30;3.50;;;;;;;;;;4956210;29;20027;-81
2023/03/30 02:32:15;;;;;;;5.85;2.70;;;;;;;;;;4938569;29;20019;-81
2023/03/30 02:34:42;;;;;;;8.23;3.67;;;;;;;;;;4936679;29;20060;-82
2023/03/30 02:37:16;;;;;;;10.20;3.47;;;;;;;;;;4955495;29;20019;-80
2023/03/30 02:39:42;;;;;;;7.63;2.83;;;;;;;;;;4955101;29;20024;-81
2023/03/30 02:42:28;;;;;;;8.70;2.70;;;;;;;;;;4956169;29;20071;-81
2023/03/30 02:45:13;;;;;;;8.45;3.47;;;;;;;;;;4928973;29;20047;-82
2023/03/30 02:48:06;;;;;;;7.90;2.63;;;;;;;;;;4943962;29;20162;-81
2023/03/30 02:50:38;;;;;;;9.85;3.00;;;;;;;;;;4917405;29;20040;-81
2023/03/30 02:53:23;;;;;;;7.18;2.67;;;;;;;;;;4919676;29;20040;-82
2023/03/30 02:55:56;;;;;;;10.32;2.88;;;;;;;;;;4934150;29;20032;-81
2023/03/30 02:58:32;;;;;;;6.78;3.13;;;;;;;;;;4949332;29;20034;-82
2023/03/30 03:01:04;;;;;;;5.90;2.55;;;;;;;;;;4939713;29;20028;-81
2023/03/30 03:03:35;;;;;;;6.47;2.78;;;;;;;;;;4930881;29;20031;-81
2023/03/30 03:06:03;;;;;;;9.68;2.83;;;;;;;;;;4953986;29;20040;-81
2023/03/30 03:08:34;;;;;;;7.85;2.88;;;;;;;;;;4927472;29;20032;-81
2023/03/30 03:11:00;;;;;;;8.50;3.38;;;;;;;;;;4917502;29;20032;-81
2023/03/30 03:13:26;;;;;;;6.00;4.15;;;;;;;;;;4936034;29;20125;-81
2023/03/30 03:15:55;;;;;;;9.18;3.30;;;;;;;;;;4929097;29;20074;-81
2023/03/30 03:18:24;;;;;;;12.82;3.83;;;;;;;;;;4955626;29;20055;-81
2023/03/30 03:20:53;;;;;;;9.25;3.58;;;;;;;;;;4956850;29;20020;-81
2023/03/30 03:23:19;;;;;;;6.28;2.97;;;;;;;;;;4938798;29;20014;-81
2023/03/30 03:25:47;;;;;;;4.53;2.80;;;;;;;;;;4938129;29;20027;-81
2023/03/30 03:28:16;;;;;;;6.20;2.45;;;;;;;;;;4938402;29;20062;-81
2023/03/30 03:30:42;;;;;;;12.30;3.42;;;;;;;;;;4937828;29;20035;-82
2023/03/30 03:33:08;;;;;;;10.82;3.22;;;;;;;;;;4938991;29;20043;-81
2023/03/30 03:35:38;;;;;;;8.52;2.70;;;;;;;;;;4936394;29;20060;-81
2023/03/30 03:38:05;;;;;;;6.25;3.22;;;;;;;;;;4936675;29;20040;-81
2023/03/30 03:40:32;;;;;;;12.82;3.15;;;;;;;;;;4935627;29;20064;-81
2023/03/30 03:42:58;;;;;;;15.35;4.05;;;;;;;;;;4936906;29;20031;-81
2023/03/30 03:45:24;;;;;;;10.90;3.25;;;;;;;;;;4936146;29;20100;-80
2023/03/30 03:47:53;;;;;;;9.18;3.20;;;;;;;;;;4953111;29;20059;-81
2023/03/30 03:50:19;;;;;;;11.48;3.03;;;;;;;;;;4922273;29;20100;-81
2023/03/30 03:52:46;;;;;;;8.52;2.58;;;;;;;;;;4934854;29;20031;-81
2023/03/30 03:55:12;;;;;;;12.88;3.03;;;;;;;;;;4931369;29;20127;-81
2023/03/30 03:57:39;;;;;;;8.75;3.53;;;;;;;;;;4922485;29;20059;-81
2023/03/30 04:00:14;;;;;;;10.65;3.90;;;;;;;;;;4935001;29;20028;-81
2023/03/30 04:02:41;;;;;;;7.65;3.20;;;;;;;;;;4953034;29;20024;-81
2023/03/30 04:05:08;;;;;;;15.73;3.47;;;;;;;;;;4923082;29;20035;-80
2023/03/30 04:07:35;;;;;;;13.20;3.38;;;;;;;;;;4936082;29;20039;-81
2023/03/30 04:10:06;;;;;;;13.27;3.03;;;;;;;;;;4953531;29;20032;-81
2023/03/30 04:12:32;;;;;;;5.63;3.63;;;;;;;;;;4926759;29;20028;-81
2023/03/30 04:15:00;;;;;;;10.00;3.25;;;;;;;;;;4918580;29;20036;-81
2023/03/30 04:17:26;;;;;;;5.13;2.45;;;;;;;;;;4906086;29;20069;-82
2023/03/30 04:19:53;;;;;;;10.15;3.17;;;;;;;;;;4948470;29;20019;-81
2023/03/30 04:22:23;;;;;;;6.38;3.08;;;;;;;;;;4951191;29;20030;-81
2023/03/30 04:24:50;;;;;;;10.00;3.78;;;;;;;;;;4952640;29;20031;-80
2023/03/30 04:27:16;;;;;;;11.43;4.05;;;;;;;;;;4951838;29;20091;-81
2023/03/30 04:29:46;;;;;;;9.30;3.17;;;;;;;;;;4936504;29;20043;-81
2023/03/30 04:32:19;;;;;;;9.20;3.08;;;;;;;;;;4933707;29;20033;-81
2023/03/30 04:34:45;;;;;;;8.20;2.83;;;;;;;;;;4927325;29;20036;-81
2023/03/30 04:37:17;;;;;;;12.70;3.03;;;;;;;;;;4933717;29;20032;-80
2023/03/30 04:39:44;;;;;;;8.02;3.75;;;;;;;;;;4935720;29;20024;-81
2023/03/30 04:42:13;;;;;;;9.65;3.88;;;;;;;;;;4942293;29;20028;-81
2023/03/30 04:44:44;;;;;;;11.95;3.47;;;;;;;;;;4924745;29;20087;-81
2023/03/30 04:47:11;;;;;;;10.75;4.13;;;;;;;;;;4903611;29;20036;-81
2023/03/30 04:49:42;;;;;;;6.70;3.25;;;;;;;;;;4937125;29;20039;-81
2023/03/30 04:52:10;;;;;;;11.63;3.75;;;;;;;;;;4955765;29;20112;-81
2023/03/30 04:54:52;;;;;;;9.45;3.22;;;;;;;;;;4956039;29;20079;-81
2023/03/30 04:57:22;;;;;;;13.27;4.47;;;;;;;;;;4929090;29;20032;-82
2023/03/30 04:59:55;;;;;;;8.57;4.13;;;;;;;;;;4920027;29;20052;-81
2023/03/30 05:02:27;;;;;;;10.95;3.28;;;;;;;;;;4936890;29;20028;-81
2023/03/30 05:04:56;;;;;;;9.32;3.30;;;;;;;;;;4904114;29;20036;-81
2023/03/30 05:07:28;;;;;;;;;;;;;;;;;;4947497;29;20032;-82
2023/03/30 05:09:56;;;;;;;;;;;;;;;;;;4938606;29;19967;-81
2023/03/30 05:12:22;;;;;;;14.70;3.63;;;;;;;;;;4953493;29;19906;-81
2023/03/30 05:14:49;;;;;;;11.43;3.50;;;;;;;;;;4931113;29;20092;-81
2023/03/30 05:17:17;;;;;;;15.23;4.38;;;;;;;;;;4918709;29;20005;-82
2023/03/30 05:19:43;;;;;;;14.63;4.22;;;;;;;;;;4932587;29;20087;-81
2023/03/30 05:22:09;;;;;;;14.02;4.55;;;;;;;;;;4936923;29;20096;-81
2023/03/30 05:24:39;;;;;;;11.25;3.92;;;;;;;;;;4935775;29;20099;-82
2023/03/30 05:27:10;;;;;;;12.70;3.97;;;;;;;;;;4936823;29;20052;-82
2023/03/30 05:29:41;;;;;;;15.40;3.78;;;;;;;;;;4924843;29;20046;-81
2023/03/30 05:32:08;;;;;;;14.30;3.85;;;;;;;;;;4943746;29;20028;-82
2023/03/30 05:34:39;;;;;;;12.13;3.55;;;;;;;;;;4959240;29;20040;-81
2023/03/30 05:37:17;;;;;;;18.20;5.40;;;;;;;;;;4960758;29;20011;-82
2023/03/30 05:42:52;;;;;;;16.33;4.63;;;;;;;;;;4949638;29;20043;-82
2023/03/30 05:45:19;;;;;;;13.65;3.47;;;;;;;;;;4960286;29;20004;-82
2023/03/30 05:47:45;;;;;;;15.30;4.00;;;;;;;;;;4943073;29;20020;-82
2023/03/30 05:50:19;;;;;;;11.88;3.88;;;;;;;;;;4956221;29;20035;-82
2023/03/30 05:52:51;;;;;;;8.30;3.40;;;;;;;;;;4958416;29;20062;-81
2023/03/30 05:55:29;;;;;;;18.35;4.35;;;;;;;;;;4941582;29;20042;-82
2023/03/30 05:58:09;;;;;;;11.23;3.40;;;;;;;;;;4955608;29;20092;-81
2023/03/30 06:00:40;;;;;;;20.27;4.45;;;;;;;;;;4958524;29;20024;-81
2023/03/30 06:03:08;;;;;;;16.05;3.70;;;;;;;;;;4944411;29;20075;-81
2023/03/30 06:05:38;;;;;;;13.68;3.60;;;;;;;;;;4956962;29;20040;-82
2023/03/30 06:08:22;;;;;;;13.23;3.75;;;;;;;;;;4959879;29;20032;-81
2023/03/30 06:11:01;;;;;;;16.05;3.72;;;;;;;;;;4961466;29;20512;-81
2023/03/30 06:13:52;;;;;;;15.60;3.88;;;;;;;;;;4922293;29;20035;-82
2023/03/30 06:16:27;;;;;;;9.80;4.07;;;;;;;;;;4959355;29;20051;-81
2023/03/30 06:18:58;;;;;;;19.52;3.47;;;;;;;;;;4925411;29;20036;-82
2023/03/30 06:21:29;;;;;;;15.38;3.38;;;;;;;;;;4942908;29;20028;-81
2023/03/30 06:23:55;;;;;;;7.53;3.42;;;;;;;;;;4963072;23;20048;-81
2023/03/30 06:26:22;;;;;;;16.98;3.40;;;;;;;;;;4925716;29;20039;-78
2023/03/30 06:28:48;;;;;;;11.50;3.17;;;;;;;;;;4925702;29;20031;-77
2023/03/30 06:31:15;;;;;;;12.38;3.67;;;;;;;;;;4921339;29;20413;-77
2023/03/30 06:33:42;;;;;;;15.73;2.92;;;;;;;;;;4933712;29;20031;-77
2023/03/30 06:36:12;;;;;;;14.25;3.13;;;;;;;;;;4940008;29;20023;-77
2023/03/30 06:38:38;;;;;;;15.90;3.40;;;;;;;;;;4931544;29;20087;-78
2023/03/30 06:41:07;;;;;;;12.95;3.63;;;;;;;;;;4939868;29;20055;-77
2023/03/30 06:43:33;;;;;;;11.60;3.00;;;;;;;;;;4940606;29;20528;-78
2023/03/30 06:45:59;;;;;;;8.70;2.78;;;;;;;;;;4926585;29;20024;-79
2023/03/30 06:48:25;;;;;;;6.53;2.38;;;;;;;;;;4943884;29;20027;-81
2023/03/30 06:50:52;;;;;;;7.07;2.65;;;;;;;;;;4935931;29;20039;-80
2023/03/30 06:53:19;;;;;;;11.52;2.65;;;;;;;;;;4937780;29;20019;-78
2023/03/30 06:55:50;;;;;;;7.70;2.95;;;;;;;;;;4935113;29;20090;-79
2023/03/30 06:58:16;;;;;;;8.15;3.15;;;;;;;;;;4941510;29;20024;-80
2023/03/30 07:00:42;;;;;;;12.15;3.22;;;;;;;;;;4920906;29;20047;-79
2023/03/30 07:03:08;;;;;;;7.75;2.65;;;;;;;;;;4917598;29;20507;-80
2023/03/30 07:05:35;;;;;;;6.95;2.53;;;;;;;;;;4919091;29;20051;-80
2023/03/30 07:08:02;;;;;;;10.90;2.78;;;;;;;;;;4927516;29;20035;-79
2023/03/30 07:10:28;;;;;;;5.97;2.10;;;;;;;;;;4922640;29;20109;-79
2023/03/30 07:12:54;;;;;;;6.75;2.72;;;;;;;;;;4939024;29;20110;-81
2023/03/30 07:15:21;;;;;;;6.07;2.20;;;;;;;;;;4939637;29;20034;-80
2023/03/30 07:17:47;;;;;;;9.35;2.38;;;;;;;;;;4922663;29;20028;-80
2023/03/30 07:20:14;;;;;;;7.95;2.42;;;;;;;;;;4922895;29;20114;-79
2023/03/30 07:22:41;;;;;;;6.85;2.33;;;;;;;;;;4944490;29;20027;-79
2023/03/30 07:25:07;;;;;;;5.45;2.10;;;;;;;;;;4939433;29;20077;-79
2023/03/30 07:27:35;;;;;;;4.78;2.10;;;;;;;;;;4937753;29;20034;-79
2023/03/30 07:30:02;;;;;;;7.05;2.80;;;;;;;;;;4938300;29;20091;-79
2023/03/30 07:32:28;;;;;;;14.30;3.03;;;;;;;;;;4939401;29;20051;-79
2023/03/30 07:34:54;;;;;;;8.20;2.22;;;;;;;;;;4919881;29;20396;-80
2023/03/30 07:37:20;;;;;;;5.18;2.00;;;;;;;;;;4930670;29;20039;-78
2023/03/30 07:39:46;;;;;;;7.32;2.30;;;;;;;;;;4943619;29;20105;-80
2023/03/30 07:42:12;;;;;;;5.60;2.33;;;;;;;;;;4943800;29;20031;-78
2023/03/30 07:44:38;;;;;;;3.03;1.95;;;;;;;;;;4928629;29;20390;-81
2023/03/30 07:47:05;;;;;;;6.15;2.10;;;;;;;;;;4922926;29;20035;-82
2023/03/30 07:49:32;;;;;;;7.18;2.08;;;;;;;;;;4942409;29;20038;-79
2023/03/30 07:51:58;;;;;;;5.03;2.28;;;;;;;;;;4927722;29;20114;-79
2023/03/30 07:54:24;;;;;;;4.93;2.05;;;;;;;;;;4925737;29;20055;-79
2023/03/30 07:56:53;;;;;;;6.47;2.13;;;;;;;;;;4935378;29;20024;-79
2023/03/30 07:59:20;;;;;;;4.10;2.63;;;;;;;;;;4919673;29;20047;-79
2023/03/30 08:01:49;;;;;;;5.43;2.25;;;;;;;;;;4923543;29;20032;-79
2023/03/30 08:04:15;;;;;;;8.18;3.08;;;;;;;;;;4916601;29;20040;-80
2023/03/30 08:06:42;;;;;;;6.90;2.83;;;;;;;;;;4919321;29;20056;-81
2023/03/30 08:09:09;;;;;;;8.32;3.08;;;;;;;;;;4915617;29;20024;-80
2023/03/30 08:11:36;;;;;;;8.20;2.45;;;;;;;;;;4926308;29;20119;-80
2023/03/30 08:14:02;;;;;;;8.68;2.75;;;;;;;;;;4931355;29;20491;-80
2023/03/30 08:16:28;;;;;;;5.80;2.20;;;;;;;;;;4935916;29;21023;-80
2023/03/30 08:18:55;;;;;;;10.20;2.95;;;;;;;;;;4938173;29;20027;-81
2023/03/30 08:21:24;;;;;;;5.95;2.03;;;;;;;;;;4937754;29;20028;-82
2023/03/30 08:23:50;;;;;;;6.90;2.25;;;;;;;;;;4930750;29;20120;-81
2023/03/30 08:26:16;;;;;;;6.85;2.03;;;;;;;;;;4941093;29;20139;-80
2023/03/30 08:28:43;;;;;;;5.30;2.10;;;;;;;;;;4942916;29;20122;-80
2023/03/30 08:31:09;;;;;;;3.30;2.15;;;;;;;;;;4926661;29;20028;-81
2023/03/30 08:33:36;;;;;;;8.85;2.22;;;;;;;;;;4916980;29;20035;-79
2023/03/30 08:36:02;;;;;;;5.07;2.30;;;;;;;;;;4927435;29;20103;-80
2023/03/30 08:38:29;;;;;;;5.15;1.90;;;;;;;;;;4919948;29;20032;-81
2023/03/30 08:40:55;;;;;;;7.30;2.58;;;;;;;;;;4939776;29;20036;-81
2023/03/30 08:43:30;;;;;;;6.28;2.28;;;;;;;;;;4924415;29;20031;-81
2023/03/30 08:45:58;;;;;;;4.47;2.58;;;;;;;;;;4937020;29;20486;-81
2023/03/30 08:48:26;;;;;;;3.20;1.80;;;;;;;;;;4925168;29;20076;-81
2023/03/30 08:51:00;;;;;;;5.43;2.38;;;;;;;;;;4928237;29;20111;-80
2023/03/30 08:53:28;;;;;;;7.50;2.20;;;;;;;;;;4923479;29;20028;-82
2023/03/30 08:56:16;;;;;;;7.18;2.40;;;;;;;;;;4923147;29;20039;-81
2023/03/30 08:58:43;;;;;;;7.55;2.35;;;;;;;;;;4926725;29;20012;-81
2023/03/30 09:01:27;;;;;;;4.10;2.30;;;;;;;;;;4930602;29;20028;-82
2023/03/30 09:04:04;;;;;;;11.77;3.40;;;;;;;;;;4934032;29;20028;-84
2023/03/30 09:06:50;;;;;;;11.68;3.22;;;;;;;;;;4939723;29;20028;-83
2023/03/30 09:09:21;;;;;;;4.65;2.28;;;;;;;;;;4931280;29;20035;-82
2023/03/30 09:11:49;;;;;;;7.43;2.78;;;;;;;;;;4934296;29;20047;-82
2023/03/30 09:14:26;;;;;;;6.95;2.92;;;;;;;;;;4937060;29;20024;-83
2023/03/30 09:16:58;;;;;;;11.05;4.20;;;;;;;;;;4945144;29;20036;-82
2023/03/30 09:19:27;;;;;;;9.82;2.72;;;;;;;;;;4925033;29;20063;-83
2023/03/30 09:21:54;;;;;;;4.25;2.20;;;;;;;;;;4929979;29;20056;-82
2023/03/30 09:24:24;;;;;;;9.15;2.17;;;;;;;;;;4948711;29;20496;-82
2023/03/30 09:27:05;;;;;;;9.23;2.70;;;;;;;;;;4929205;29;20124;-80
2023/03/30 09:29:34;;;;;;;6.40;3.13;;;;;;;;;;4927255;29;20068;-81
2023/03/30 09:32:08;;;;;;;12.35;3.50;;;;;;;;;;4928978;29;20040;-82
2023/03/30 09:34:41;;;;;;;7.22;2.30;;;;;;;;;;4930557;29;20027;-81
2023/03/30 09:37:17;;;;;;;3.08;2.40;;;;;;;;;;4925650;29;20026;-81
2023/03/30 09:39:47;;;;;;;8.50;2.70;;;;;;;;;;4925677;29;20055;-82
2023/03/30 09:42:27;;;;;;;11.30;2.67;;;;;;;;;;4931206;29;20111;-80
2023/03/30 09:45:12;;;;;;;7.28;2.58;;;;;;;;;;4928117;29;20019;-81
2023/03/30 09:47:39;;;;;;;8.63;2.65;;;;;;;;;;4926414;29;20035;-81
2023/03/30 09:50:06;;;;;;;8.25;2.60;;;;;;;;;;4947969;29;20156;-81
2023/03/30 09:52:37;;;;;;;8.88;2.60;;;;;;;;;;4931897;29;20099;-81
2023/03/30 09:55:24;;;;;;;8.48;2.80;;;;;;;;;;4945571;29;20028;-80
2023/03/30 09:57:51;;;;;;;7.85;3.60;;;;;;;;;;4923056;29;20044;-80
2023/03/30 10:00:31;;;;;;;8.57;2.75;;;;;;;;;;4938310;29;20019;-81
2023/03/30 10:03:01;;;;;;;11.45;3.25;;;;;;;;;;4925611;29;20028;-79
2023/03/30 10:05:28;;;;;;;7.43;2.63;;;;;;;;;;4939213;29;20824;-81
2023/03/30 10:07:56;;;;;;;8.85;3.17;;;;;;;;;;4927833;29;20032;-80
2023/03/30 10:10:25;;;;;;;6.85;2.80;;;;;;;;;;4929040;29;20032;-81
2023/03/30 10:12:54;;;;;;;7.30;3.03;;;;;;;;;;4944893;29;20042;-80
2023/03/30 10:15:22;;;;;;;8.40;2.58;;;;;;;;;;4921644;29;20668;-81
2023/03/30 10:17:50;;;;;;;9.88;2.53;;;;;;;;;;4947431;29;20039;-81
2023/03/30 10:20:24;;;;;;;12.27;3.30;;;;;;;;;;4928606;29;20676;-79
2023/03/30 10:22:52;;;;;;;8.57;2.95;;;;;;;;;;4938746;29;20031;-80
2023/03/30 10:25:20;;;;;;;7.45;2.22;;;;;;;;;;4947788;29;20087;-81
2023/03/30 10:27:55;;;;;;;6.95;2.92;;;;;;;;;;4944817;29;20028;-86
2023/03/30 10:30:23;;;;;;;9.27;3.03;;;;;;;;;;4936252;29;20027;-81
2023/03/30 10:32:50;;;;;;;9.85;2.97;;;;;;;;;;4928342;29;20091;-82
2023/03/30 10:35:24;;;;;;;11.18;4.03;;;;;;;;;;4924041;29;20031;-80
2023/03/30 10:37:54;;;;;;;10.52;4.28;;;;;;;;;;4923256;29;20020;-82
2023/03/30 10:40:23;;;;;;;7.00;2.13;;;;;;;;;;4947447;29;20023;-82
2023/03/30 10:42:51;;;;;;;7.10;2.35;;;;;;;;;;4946127;29;20027;-81
2023/03/30 10:45:47;;;;;;;3.22;2.35;;;;;;;;;;4951896;29;20564;-81
2023/03/30 10:48:13;;;;;;;6.75;2.88;;;;;;;;;;4927644;29;20104;-82
2023/03/30 10:50:45;;;;;;;6.15;3.00;;;;;;;;;;4945153;29;20382;-81
2023/03/30 10:53:19;;;;;;;7.10;2.80;;;;;;;;;;4926630;29;20103;-81
2023/03/30 10:56:14;;;;;;;6.97;2.60;;;;;;;;;;4944801;29;20027;-80
2023/03/30 10:58:59;;;;;;;10.00;3.63;;;;;;;;;;4945329;29;20041;-82
2023/03/30 11:01:34;;;;;;;8.68;2.40;;;;;;;;;;4939291;29;20344;-82
2023/03/30 11:04:03;;;;;;;6.57;2.50;;;;;;;;;;4933755;29;20577;-82
2023/03/30 11:06:32;;;;;;;10.63;4.75;;;;;;;;;;4930153;29;20028;-82
2023/03/30 11:09:00;;;;;;;6.47;2.53;;;;;;;;;;4946006;29;20039;-81
2023/03/30 11:11:37;;;;;;;8.85;2.35;;;;;;;;;;4922455;29;21182;-81
2023/03/30 11:14:07;;;;;;;9.23;2.58;;;;;;;;;;4931123;29;20028;-82
2023/03/30 11:16:44;;;;;;;7.00;2.33;;;;;;;;;;4926722;29;20028;-83
2023/03/30 11:19:30;;;;;;;7.45;2.60;;;;;;;;;;4928634;29;20035;-82
2023/03/30 11:21:59;;;;;;;6.90;2.28;;;;;;;;;;4920064;29;20042;-81
2023/03/30 11:24:27;;;;;;;10.82;3.90;;;;;;;;;;4940640;29;20047;-81
2023/03/30 11:26:56;;;;;;;9.02;2.50;;;;;;;;;;4934597;29;20043;-82
2023/03/30 11:29:37;;;;;;;3.78;2.00;;;;;;;;;;4947101;29;20028;-82
2023/03/30 11:32:19;;;;;;;5.32;3.00;;;;;;;;;;4932896;29;20084;-81
2023/03/30 11:34:48;;;;;;;5.60;2.58;;;;;;;;;;4921669;29;20032;-80
2023/03/30 11:37:19;;;;;;;8.60;2.40;;;;;;;;;;4931779;29;20050;-81
2023/03/30 11:39:52;;;;;;;8.20;2.70;;;;;;;;;;4940795;29;20308;-80
2023/03/30 11:42:26;;;;;;;6.82;1.90;;;;;;;;;;4958496;23;20521;-88
2023/03/30 11:44:52;;;;;;;4.45;2.00;;;;;;;;;;4909948;29;20040;-86
2023/03/30 11:47:31;;;;;;;4.82;2.75;;;;;;;;;;4903029;29;20050;-87
2023/03/30 11:50:12;;;;;;;4.72;2.80;;;;;;;;;;4907842;29;20084;-88
2023/03/30 11:52:56;;;;;;;8.93;2.20;;;;;;;;;;4903728;29;20491;-84
2023/03/30 11:55:37;;;;;;;7.90;2.50;;;;;;;;;;4886330;29;20037;-85
2023/03/30 11:58:07;;;;;;;6.53;2.30;;;;;;;;;;4900115;29;20031;-84
2023/03/30 12:00:40;;;;;;;8.77;2.45;;;;;;;;;;4903613;29;20021;-86
2023/03/30 12:03:16;;;;;;;8.15;2.78;;;;;;;;;;4898455;29;20021;-87
2023/03/30 12:05:47;;;;;;;7.32;2.10;;;;;;;;;;4899869;29;20029;-88
2023/03/30 12:08:32;;;;;;;5.63;2.60;;;;;;;;;;4892409;29;20036;-83
2023/03/30 12:11:19;;;;;;;4.88;2.22;;;;;;;;;;4916318;29;20032;-82
2023/03/30 12:13:45;;;;;;;4.03;2.55;;;;;;;;;;4897171;29;20133;-82
2023/03/30 12:16:20;;;;;;;6.05;2.10;;;;;;;;;;4884110;29;20101;-92
2023/03/30 12:18:49;;;;;;;6.53;2.17;;;;;;;;;;4892012;29;20132;-87
2023/03/30 12:21:45;;;;;;;3.75;1.90;;;;;;;;;;4891077;29;20035;-85
2023/03/30 12:24:26;;;;;;;5.20;2.50;;;;;;;;;;4889084;29;20048;-86
2023/03/30 12:26:52;;;;;;;4.85;3.00;;;;;;;;;;4897449;29;20032;-83
2023/03/30 12:29:19;;;;;;;9.02;2.70;;;;;;;;;;4901509;29;20489;-85
2023/03/30 12:31:50;;;;;;;7.13;2.42;;;;;;;;;;4893090;29;20053;-88
2023/03/30 12:34:16;;;;;;;5.90;2.67;;;;;;;;;;4899755;29;20025;-81
2023/03/30 12:36:48;;;;;;;7.60;2.40;;;;;;;;;;4884277;29;20151;-85
2023/03/30 12:39:24;;;;;;;6.72;2.40;;;;;;;;;;4896339;29;20020;-86
2023/03/30 12:41:56;;;;;;;5.18;2.10;;;;;;;;;;4895569;29;20029;-84
2023/03/30 12:44:42;;;;;;;5.05;2.20;;;;;;;;;;4880245;29;20031;-80
2023/03/30 12:47:29;;;;;;;6.70;2.30;;;;;;;;;;4895762;29;20088;-88
2023/03/30 12:49:59;;;;;;;5.28;2.00;;;;;;;;;;4899091;29;20025;-86
2023/03/30 12:52:25;;;;;;;5.43;2.00;;;;;;;;;;4891911;29;20153;-87
2023/03/30 12:55:00;;;;;;;7.97;2.28;;;;;;;;;;4900956;29;20037;-84
2023/03/30 12:57:41;;;;;;;7.07;2.20;;;;;;;;;;4894006;29;20136;-87
2023/03/30 13:00:30;;;;;;;6.63;3.15;;;;;;;;;;4898791;29;20575;-87
2023/03/30 13:03:02;;;;;;;9.27;2.28;;;;;;;;;;4898182;29;20572;-87
2023/03/30 13:05:33;;;;;;;4.53;2.15;;;;;;;;;;4903913;29;20040;-83
2023/03/30 13:08:10;;;;;;;5.25;2.10;;;;;;;;;;4895931;29;20041;-84
2023/03/30 13:10:38;;;;;;;6.30;2.22;;;;;;;;;;4891346;29;20038;-79
2023/03/30 13:13:04;;;;;;;6.68;2.25;;;;;;;;;;4905450;29;20029;-78
2023/03/30 13:15:48;;;;;;;5.57;1.83;;;;;;;;;;4902732;29;20040;-90
2023/03/30 13:18:18;;;;;;;2.47;1.65;;;;;;;;;;4896197;29;20065;-82
2023/03/30 13:20:47;;;;;;;3.83;2.00;;;;;;;;;;4895524;29;20060;-84
2023/03/30 13:23:13;;;;;;;2.03;1.73;;;;;;;;;;4883866;29;20039;-90
2023/03/30 13:25:44;;;;;;;2.85;1.80;;;;;;;;;;4903783;29;20035;-82
2023/03/30 13:28:29;;;;;;;2.08;1.83;;;;;;;;;;4897475;29;20025;-84
2023/03/30 13:31:00;;;;;;;2.35;1.80;;;;;;;;;;4896430;29;20060;-88
2023/03/30 13:33:27;;;;;;;4.45;2.05;;;;;;;;;;4892824;29;20441;-87
2023/03/30 13:36:06;;;;;;;2.00;1.67;;;;;;;;;;4898872;29;20032;-86
2023/03/30 13:38:38;;;;;;;2.65;1.70;;;;;;;;;;4879514;29;20032;-85
2023/03/30 13:41:07;;;;;;;3.88;1.80;;;;;;;;;;4879297;29;20024;-85
2023/03/30 13:43:54;;;;;;;7.13;2.08;;;;;;;;;;4897908;29;20037;-85
2023/03/30 13:46:40;;;;;;;6.57;1.70;;;;;;;;;;4869033;29;20037;-83
2023/03/30 13:49:25;;;;;;;5.05;2.55;;;;;;;;;;4882278;29;20486;-80
2023/03/30 13:51:52;;;;;;;5.03;2.10;;;;;;;;;;4901389;29;20536;-86
2023/03/30 13:54:25;;;;;;;5.38;1.75;;;;;;;;;;4902872;29;20097;-89
2023/03/30 13:56:55;;;;;;;4.28;1.73;;;;;;;;;;4903540;29;20029;-85
2023/03/30 13:59:22;;;;;;;5.53;1.98;;;;;;;;;;4890637;29;20033;-85
2023/03/30 14:01:51;;;;;;;7.72;2.20;;;;;;;;;;4903694;29;20033;-86
2023/03/30 14:04:19;;;;;;;4.00;1.95;;;;;;;;;;4904588;29;20037;-87
2023/03/30 14:06:48;;;;;;;5.03;2.03;;;;;;;;;;4886820;29;20494;-87
2023/03/30 14:09:20;;;;;;;3.60;2.08;;;;;;;;;;4905154;29;20033;-85
2023/03/30 14:11:57;;;;;;;5.57;1.80;;;;;;;;;;4892376;29;20032;-88
2023/03/30 14:14:23;;;;;;;4.10;2.10;;;;;;;;;;4903553;29;20371;-83
2023/03/30 14:16:50;;;;;;;6.57;2.05;;;;;;;;;;4896765;29;20040;-84
2023/03/30 14:19:22;;;;;;;11.98;2.83;;;;;;;;;;4904872;29;20031;-80
2023/03/30 14:21:48;;;;;;;7.07;2.78;;;;;;;;;;4893212;29;20036;-84
2023/03/30 14:24:16;;;;;;;5.90;2.00;;;;;;;;;;4884959;29;20498;-80
2023/03/30 14:26:43;;;;;;;4.65;2.25;;;;;;;;;;4896258;29;20127;-82
2023/03/30 14:29:20;;;;;;;3.30;1.90;;;;;;;;;;4885323;29;21013;-87
2023/03/30 14:31:50;;;;;;;3.72;2.50;;;;;;;;;;4902857;29;20405;-79
2023/03/30 14:34:27;;;;;;;8.98;2.72;;;;;;;;;;4894735;29;20888;-88
2023/03/30 14:37:13;;;;;;;9.80;3.03;;;;;;;;;;4902445;29;20093;-87
2023/03/30 14:40:00;;;;;;;12.45;4.07;;;;;;;;;;4904600;29;20044;-86
2023/03/30 14:42:32;;;;;;;13.02;3.88;;;;;;;;;;4907424;29;20048;-89
2023/03/30 14:45:07;;;;;;;13.18;4.10;;;;;;;;;;4898327;29;20135;-89
2023/03/30 14:47:35;;;;;;;16.63;4.05;;;;;;;;;;4893879;29;20103;-86
2023/03/30 14:50:03;;;;;;;10.85;3.47;;;;;;;;;;4886483;29;20047;-83
2023/03/30 14:52:38;;;;;;;19.88;4.70;;;;;;;;;;4907112;29;20050;-88
2023/03/30 14:55:06;;;;;;;12.70;4.35;;;;;;;;;;4902072;29;20128;-86
2023/03/30 14:57:36;;;;;;;17.08;5.45;;;;;;;;;;4894241;29;20064;-89
2023/03/30 15:00:19;;;;;;;12.35;4.13;;;;;;;;;;4907906;29;20040;-86
2023/03/30 15:02:48;;;;;;;13.60;5.13;;;;;;;;;;4905105;29;20124;-88
2023/03/30 15:05:16;;;;;;;12.23;4.45;;;;;;;;;;4905059;29;20037;-82
2023/03/30 15:07:45;;;;;;;18.63;5.07;;;;;;;;;;4901018;29;20797;-87
2023/03/30 15:10:25;;;;;;;9.95;4.72;;;;;;;;;;4875795;29;20029;-87
2023/03/30 15:12:55;;;;;;;15.15;5.05;;;;;;;;;;4902391;29;20020;-85
2023/03/30 15:15:25;;;;;;;13.45;4.00;;;;;;;;;;4881481;29;20131;-87
2023/03/30 15:17:51;;;;;;;15.10;4.35;;;;;;;;;;4894015;29;20025;-85
2023/03/30 15:20:18;;;;;;;15.13;4.82;;;;;;;;;;4896781;29;20037;-78
2023/03/30 15:22:46;;;;;;;12.80;5.30;;;;;;;;;;4883318;29;20037;-86
2023/03/30 15:25:23;;;;;;;13.00;4.72;;;;;;;;;;4883747;29;20032;-85
2023/03/30 15:27:57;;;;;;;10.90;3.95;;;;;;;;;;4881788;29;20039;-83
2023/03/30 15:30:35;;;;;;;12.40;4.45;;;;;;;;;;4894636;29;20044;-80